sensor_id;sensor_type;location;lat;lon;timestamp;pressure;altitude;pressure_sealevel;temperature;humidity
42169;BME280;27838;43.858;25.974;2023-01-29T00:00:04;101386.84;;;5.81;64.69
42169;BME280;27838;43.858;25.974;2023-01-29T00:02:35;101382.53;;;5.81;64.62
42169;BME280;27838;43.858;25.974;2023-01-29T00:05:02;101380.88;;;5.83;65.01
42169;BME280;27838;43.858;25.974;2023-01-29T00:07:29;101385.19;;;5.83;64.59
42169;BME280;27838;43.858;25.974;2023-01-29T00:09:56;101382.53;;;5.81;64.89
42169;BME280;27838;43.858;25.974;2023-01-29T00:12:23;101381.72;;;5.82;64.86
42169;BME280;27838;43.858;25.974;2023-01-29T00:14:49;101389.47;;;5.82;64.29
42169;BME280;27838;43.858;25.974;2023-01-29T00:17:16;101387.81;;;5.84;64.33
42169;BME280;27838;43.858;25.974;2023-01-29T00:19:42;101396.41;;;5.83;64.66
42169;BME280;27838;43.858;25.974;2023-01-29T00:22:09;101399.84;;;5.82;64.85
42169;BME280;27838;43.858;25.974;2023-01-29T00:24:36;101399.94;;;5.85;63.94
42169;BME280;27838;43.858;25.974;2023-01-29T00:27:02;101406.13;;;5.91;63.80
42169;BME280;27838;43.858;25.974;2023-01-29T00:29:30;101405.28;;;5.92;64.12
42169;BME280;27838;43.858;25.974;2023-01-29T00:31:56;101411.31;;;5.92;63.78
42169;BME280;27838;43.858;25.974;2023-01-29T00:34:23;101413.94;;;5.94;63.82
42169;BME280;27838;43.858;25.974;2023-01-29T00:36:50;101419.97;;;5.93;64.61
42169;BME280;27838;43.858;25.974;2023-01-29T00:39:16;101408.56;;;5.86;64.50
42169;BME280;27838;43.858;25.974;2023-01-29T00:41:48;101419.69;;;5.83;64.42
42169;BME280;27838;43.858;25.974;2023-01-29T00:44:32;101415.31;;;5.81;64.01
42169;BME280;27838;43.858;25.974;2023-01-29T00:47:16;101419.66;;;5.82;64.50
42169;BME280;27838;43.858;25.974;2023-01-29T00:50:01;101411.91;;;5.83;64.72
42169;BME280;27838;43.858;25.974;2023-01-29T00:52:28;101411.00;;;5.81;64.60
42169;BME280;27838;43.858;25.974;2023-01-29T00:54:57;101418.84;;;5.84;64.03
42169;BME280;27838;43.858;25.974;2023-01-29T00:57:25;101417.94;;;5.82;64.56
42169;BME280;27838;43.858;25.974;2023-01-29T00:59:52;101417.88;;;5.81;64.46
42169;BME280;27838;43.858;25.974;2023-01-29T01:02:19;101416.91;;;5.77;64.82
42169;BME280;27838;43.858;25.974;2023-01-29T01:05:05;101422.09;;;5.77;65.02
42169;BME280;27838;43.858;25.974;2023-01-29T01:07:32;101422.00;;;5.74;64.81
42169;BME280;27838;43.858;25.974;2023-01-29T01:09:59;101422.00;;;5.74;65.05
42169;BME280;27838;43.858;25.974;2023-01-29T01:12:43;101421.06;;;5.72;64.58
42169;BME280;27838;43.858;25.974;2023-01-29T01:15:10;101428.94;;;5.75;64.20
42169;BME280;27838;43.858;25.974;2023-01-29T01:17:37;101425.13;;;5.64;64.21
42169;BME280;27838;43.858;25.974;2023-01-29T01:20:04;101423.38;;;5.63;64.67
42169;BME280;27838;43.858;25.974;2023-01-29T01:22:30;101424.88;;;5.56;64.40
42169;BME280;27838;43.858;25.974;2023-01-29T01:24:57;101429.19;;;5.56;64.43
42169;BME280;27838;43.858;25.974;2023-01-29T01:27:23;101422.31;;;5.56;64.36
42169;BME280;27838;43.858;25.974;2023-01-29T01:29:50;101422.19;;;5.53;64.35
42169;BME280;27838;43.858;25.974;2023-01-29T01:32:17;101424.50;;;5.44;64.36
42169;BME280;27838;43.858;25.974;2023-01-29T01:34:43;101421.88;;;5.42;64.15
42169;BME280;27838;43.858;25.974;2023-01-29T01:37:10;101426.19;;;5.43;64.96
42169;BME280;27838;43.858;25.974;2023-01-29T01:39:37;101419.38;;;5.45;64.68
42169;BME280;27838;43.858;25.974;2023-01-29T01:42:08;101417.72;;;5.47;64.77
42169;BME280;27838;43.858;25.974;2023-01-29T01:47:35;101416.22;;;5.54;64.25
42169;BME280;27838;43.858;25.974;2023-01-29T01:50:27;101418.59;;;5.48;64.09
42169;BME280;27838;43.858;25.974;2023-01-29T01:53:02;101420.03;;;5.38;63.79
42169;BME280;27838;43.858;25.974;2023-01-29T01:55:31;101422.63;;;5.40;64.32
42169;BME280;27838;43.858;25.974;2023-01-29T01:58:05;101425.31;;;5.43;64.02
42169;BME280;27838;43.858;25.974;2023-01-29T02:00:36;101413.81;;;5.33;64.30
42169;BME280;27838;43.858;25.974;2023-01-29T02:03:04;101420.16;;;5.43;64.71
42169;BME280;27838;43.858;25.974;2023-01-29T02:05:52;101420.94;;;5.40;64.17
42169;BME280;27838;43.858;25.974;2023-01-29T02:08:46;101417.44;;;5.38;64.43
42169;BME280;27838;43.858;25.974;2023-01-29T02:11:33;101423.84;;;5.24;64.05
42169;BME280;27838;43.858;25.974;2023-01-29T02:13:59;101420.22;;;5.19;64.36
42169;BME280;27838;43.858;25.974;2023-01-29T02:16:26;101418.19;;;5.08;64.48
42169;BME280;27838;43.858;25.974;2023-01-29T02:18:52;101426.53;;;5.01;64.68
42169;BME280;27838;43.858;25.974;2023-01-29T02:21:22;101418.69;;;4.98;65.46
42169;BME280;27838;43.858;25.974;2023-01-29T02:32:19;101435.69;;;4.91;65.81
42169;BME280;27838;43.858;25.974;2023-01-29T02:38:00;101438.94;;;4.86;65.59
42169;BME280;27838;43.858;25.974;2023-01-29T02:40:44;101439.13;;;4.92;65.55
42169;BME280;27838;43.858;25.974;2023-01-29T02:44:04;101428.97;;;4.97;65.54
42169;BME280;27838;43.858;25.974;2023-01-29T02:52:22;101437.84;;;5.05;65.12
42169;BME280;27838;43.858;25.974;2023-01-29T02:54:57;101443.06;;;5.06;65.23
42169;BME280;27838;43.858;25.974;2023-01-29T02:57:33;101436.97;;;5.04;65.65
42169;BME280;27838;43.858;25.974;2023-01-29T03:00:06;101445.03;;;5.14;65.39
42169;BME280;27838;43.858;25.974;2023-01-29T03:03:13;101441.53;;;5.11;64.62
42169;BME280;27838;43.858;25.974;2023-01-29T03:08:19;101436.34;;;5.11;64.15
42169;BME280;27838;43.858;25.974;2023-01-29T03:10:52;101440.47;;;5.06;64.83
42169;BME280;27838;43.858;25.974;2023-01-29T03:16:01;101449.22;;;5.10;64.52
42169;BME280;27838;43.858;25.974;2023-01-29T03:18:34;101438.19;;;5.14;65.28
42169;BME280;27838;43.858;25.974;2023-01-29T03:21:12;101447.03;;;5.22;64.92
42169;BME280;27838;43.858;25.974;2023-01-29T03:23:55;101436.34;;;5.11;64.90
42169;BME280;27838;43.858;25.974;2023-01-29T03:26:41;101452.13;;;5.19;63.96
42169;BME280;27838;43.858;25.974;2023-01-29T03:29:30;101445.09;;;5.15;63.99
42169;BME280;27838;43.858;25.974;2023-01-29T03:32:16;101440.44;;;5.05;64.63
42169;BME280;27838;43.858;25.974;2023-01-29T03:34:47;101450.13;;;5.10;64.41
42169;BME280;27838;43.858;25.974;2023-01-29T03:37:30;101464.78;;;5.11;64.63
42169;BME280;27838;43.858;25.974;2023-01-29T03:40:00;101453.47;;;5.08;64.68
42169;BME280;27838;43.858;25.974;2023-01-29T03:50:36;101466.00;;;4.97;64.11
42169;BME280;27838;43.858;25.974;2023-01-29T03:53:26;101457.44;;;4.98;64.55
42169;BME280;27838;43.858;25.974;2023-01-29T04:01:01;101453.91;;;4.96;64.71
42169;BME280;27838;43.858;25.974;2023-01-29T04:06:08;101462.13;;;5.10;64.58
42169;BME280;27838;43.858;25.974;2023-01-29T04:08:47;101454.59;;;5.16;64.44
42169;BME280;27838;43.858;25.974;2023-01-29T04:11:18;101454.78;;;5.21;64.58
42169;BME280;27838;43.858;25.974;2023-01-29T04:13:46;101454.84;;;5.24;63.89
42169;BME280;27838;43.858;25.974;2023-01-29T04:16:19;101463.75;;;5.32;63.97
42169;BME280;27838;43.858;25.974;2023-01-29T04:18:47;101465.59;;;5.36;63.12
42169;BME280;27838;43.858;25.974;2023-01-29T04:21:15;101471.63;;;5.35;62.96
42169;BME280;27838;43.858;25.974;2023-01-29T04:23:42;101467.25;;;5.34;63.04
42169;BME280;27838;43.858;25.974;2023-01-29T04:29:19;101473.84;;;5.24;63.45
42169;BME280;27838;43.858;25.974;2023-01-29T04:37:41;101480.41;;;5.40;62.54
42169;BME280;27838;43.858;25.974;2023-01-29T04:43:02;101477.50;;;5.31;62.22
42169;BME280;27838;43.858;25.974;2023-01-29T04:48:07;101483.41;;;5.27;62.86
42169;BME280;27838;43.858;25.974;2023-01-29T04:59:41;101480.91;;;5.30;62.81
42169;BME280;27838;43.858;25.974;2023-01-29T05:02:11;101485.31;;;5.33;62.67
42169;BME280;27838;43.858;25.974;2023-01-29T05:04:40;101493.97;;;5.33;62.76
42169;BME280;27838;43.858;25.974;2023-01-29T05:07:11;101498.16;;;5.31;62.67
42169;BME280;27838;43.858;25.974;2023-01-29T05:09:41;101493.53;;;5.21;62.35
42169;BME280;27838;43.858;25.974;2023-01-29T05:12:10;101511.88;;;5.28;63.18
42169;BME280;27838;43.858;25.974;2023-01-29T05:14:40;101510.16;;;5.29;62.22
42169;BME280;27838;43.858;25.974;2023-01-29T05:17:13;101513.75;;;5.33;62.57
42169;BME280;27838;43.858;25.974;2023-01-29T05:19:41;101517.41;;;5.39;62.75
42169;BME280;27838;43.858;25.974;2023-01-29T05:22:09;101519.13;;;5.39;61.89
42169;BME280;27838;43.858;25.974;2023-01-29T05:24:37;101517.53;;;5.42;62.27
42169;BME280;27838;43.858;25.974;2023-01-29T05:27:03;101519.50;;;5.49;62.45
42169;BME280;27838;43.858;25.974;2023-01-29T05:29:48;101518.69;;;5.52;62.16
42169;BME280;27838;43.858;25.974;2023-01-29T05:32:14;101517.88;;;5.53;62.34
42169;BME280;27838;43.858;25.974;2023-01-29T05:34:41;101525.81;;;5.58;62.73
42169;BME280;27838;43.858;25.974;2023-01-29T05:37:09;101524.91;;;5.57;62.62
42169;BME280;27838;43.858;25.974;2023-01-29T05:39:35;101524.91;;;5.57;62.15
42169;BME280;27838;43.858;25.974;2023-01-29T05:42:02;101526.78;;;5.61;62.84
42169;BME280;27838;43.858;25.974;2023-01-29T05:44:29;101538.09;;;5.65;62.49
42169;BME280;27838;43.858;25.974;2023-01-29T05:46:55;101536.34;;;5.64;62.45
42169;BME280;27838;43.858;25.974;2023-01-29T05:49:22;101542.66;;;5.72;61.88
42169;BME280;27838;43.858;25.974;2023-01-29T05:51:48;101541.03;;;5.76;62.40
42169;BME280;27838;43.858;25.974;2023-01-29T05:54:15;101535.81;;;5.74;62.06
42169;BME280;27838;43.858;25.974;2023-01-29T05:56:41;101543.84;;;5.82;61.61
42169;BME280;27838;43.858;25.974;2023-01-29T05:59:08;101556.78;;;5.83;61.72
42169;BME280;27838;43.858;25.974;2023-01-29T06:01:35;101558.47;;;5.81;61.54
42169;BME280;27838;43.858;25.974;2023-01-29T06:04:02;101561.06;;;5.81;61.13
42169;BME280;27838;43.858;25.974;2023-01-29T06:06:28;101555.75;;;5.78;61.31
42169;BME280;27838;43.858;25.974;2023-01-29T06:08:55;101567.19;;;5.85;60.68
42169;BME280;27838;43.858;25.974;2023-01-29T06:11:22;101565.34;;;5.81;61.10
42169;BME280;27838;43.858;25.974;2023-01-29T06:13:48;101570.47;;;5.79;61.47
42169;BME280;27838;43.858;25.974;2023-01-29T06:16:15;101576.53;;;5.80;61.14
42169;BME280;27838;43.858;25.974;2023-01-29T06:18:42;101580.06;;;5.82;61.21
42169;BME280;27838;43.858;25.974;2023-01-29T06:21:11;101587.81;;;5.82;60.92
42169;BME280;27838;43.858;25.974;2023-01-29T06:23:38;101593.03;;;5.83;60.75
42169;BME280;27838;43.858;25.974;2023-01-29T06:26:07;101581.84;;;5.84;60.32
42169;BME280;27838;43.858;25.974;2023-01-29T06:28:34;101585.31;;;5.85;61.12
42169;BME280;27838;43.858;25.974;2023-01-29T06:31:02;101587.84;;;5.83;60.48
42169;BME280;27838;43.858;25.974;2023-01-29T06:33:32;101591.41;;;5.85;60.87
42169;BME280;27838;43.858;25.974;2023-01-29T06:36:01;101594.78;;;5.84;61.04
42169;BME280;27838;43.858;25.974;2023-01-29T06:38:28;101598.06;;;5.79;61.37
42169;BME280;27838;43.858;25.974;2023-01-29T06:40:55;101603.91;;;5.73;61.20
42169;BME280;27838;43.858;25.974;2023-01-29T06:43:22;101601.84;;;5.63;60.67
42169;BME280;27838;43.858;25.974;2023-01-29T06:45:55;101599.91;;;5.57;61.12
42169;BME280;27838;43.858;25.974;2023-01-29T06:48:25;101596.28;;;5.52;61.72
42169;BME280;27838;43.858;25.974;2023-01-29T06:50:51;101593.00;;;5.56;61.20
42169;BME280;27838;43.858;25.974;2023-01-29T06:53:19;101597.44;;;5.60;61.74
42169;BME280;27838;43.858;25.974;2023-01-29T06:55:52;101594.03;;;5.61;61.84
42169;BME280;27838;43.858;25.974;2023-01-29T06:58:19;101592.41;;;5.65;61.66
42169;BME280;27838;43.858;25.974;2023-01-29T07:00:46;101598.53;;;5.67;62.11
42169;BME280;27838;43.858;25.974;2023-01-29T07:03:13;101598.75;;;5.73;62.61
42169;BME280;27838;43.858;25.974;2023-01-29T07:05:39;101599.75;;;5.78;62.10
42169;BME280;27838;43.858;25.974;2023-01-29T07:08:06;101599.91;;;5.83;62.29
42169;BME280;27838;43.858;25.974;2023-01-29T07:10:34;101607.00;;;5.89;62.57
42169;BME280;27838;43.858;25.974;2023-01-29T07:13:00;101607.16;;;5.93;62.13
42169;BME280;27838;43.858;25.974;2023-01-29T07:15:27;101608.34;;;6.01;61.98
42169;BME280;27838;43.858;25.974;2023-01-29T07:18:01;101618.00;;;6.07;62.42
42169;BME280;27838;43.858;25.974;2023-01-29T07:20:29;101614.66;;;6.11;61.89
42169;BME280;27838;43.858;25.974;2023-01-29T07:22:56;101619.19;;;6.17;60.75
42169;BME280;27838;43.858;25.974;2023-01-29T07:25:24;101629.84;;;6.26;60.54
42169;BME280;27838;43.858;25.974;2023-01-29T07:27:50;101627.28;;;6.28;60.15
42169;BME280;27838;43.858;25.974;2023-01-29T07:30:17;101633.50;;;6.33;59.71
42169;BME280;27838;43.858;25.974;2023-01-29T07:32:44;101637.72;;;6.31;60.24
42169;BME280;27838;43.858;25.974;2023-01-29T07:35:10;101635.28;;;6.35;60.18
42169;BME280;27838;43.858;25.974;2023-01-29T07:37:37;101639.59;;;6.35;60.67
42169;BME280;27838;43.858;25.974;2023-01-29T07:40:04;101640.63;;;6.40;60.73
42169;BME280;27838;43.858;25.974;2023-01-29T07:42:38;101634.75;;;6.46;59.84
42169;BME280;27838;43.858;25.974;2023-01-29T07:45:07;101640.84;;;6.48;59.48
42169;BME280;27838;43.858;25.974;2023-01-29T07:47:33;101648.69;;;6.49;59.67
42169;BME280;27838;43.858;25.974;2023-01-29T07:50:00;101638.16;;;6.45;58.59
42169;BME280;27838;43.858;25.974;2023-01-29T07:52:31;101644.78;;;6.35;58.84
42169;BME280;27838;43.858;25.974;2023-01-29T07:54:58;101644.88;;;6.38;59.35
42169;BME280;27838;43.858;25.974;2023-01-29T07:57:25;101632.53;;;6.31;59.81
42169;BME280;27838;43.858;25.974;2023-01-29T07:59:51;101634.31;;;6.32;59.59
42169;BME280;27838;43.858;25.974;2023-01-29T08:02:18;101633.41;;;6.30;60.18
42169;BME280;27838;43.858;25.974;2023-01-29T08:04:44;101633.44;;;6.31;60.89
42169;BME280;27838;43.858;25.974;2023-01-29T08:07:11;101641.44;;;6.39;60.54
42169;BME280;27838;43.858;25.974;2023-01-29T08:09:37;101641.16;;;6.30;60.59
42169;BME280;27838;43.858;25.974;2023-01-29T08:12:04;101647.47;;;6.38;61.27
42169;BME280;27838;43.858;25.974;2023-01-29T08:14:31;101653.47;;;6.37;59.74
42169;BME280;27838;43.858;25.974;2023-01-29T08:16:57;101658.88;;;6.43;60.02
42169;BME280;27838;43.858;25.974;2023-01-29T08:19:24;101655.28;;;6.39;60.39
42169;BME280;27838;43.858;25.974;2023-01-29T08:21:50;101649.81;;;6.30;60.56
42169;BME280;27838;43.858;25.974;2023-01-29T08:24:17;101659.97;;;6.24;60.99
42169;BME280;27838;43.858;25.974;2023-01-29T08:26:43;101661.66;;;6.23;61.00
42169;BME280;27838;43.858;25.974;2023-01-29T08:29:11;101657.47;;;6.27;60.83
42169;BME280;27838;43.858;25.974;2023-01-29T08:31:37;101665.38;;;6.32;60.97
42169;BME280;27838;43.858;25.974;2023-01-29T08:34:04;101664.56;;;6.33;61.12
42169;BME280;27838;43.858;25.974;2023-01-29T08:36:30;101663.84;;;6.37;60.82
42169;BME280;27838;43.858;25.974;2023-01-29T08:38:57;101655.31;;;6.41;61.43
42169;BME280;27838;43.858;25.974;2023-01-29T08:41:23;101662.38;;;6.45;60.97
42169;BME280;27838;43.858;25.974;2023-01-29T08:43:50;101668.44;;;6.46;60.71
42169;BME280;27838;43.858;25.974;2023-01-29T08:46:16;101670.19;;;6.47;61.23
42169;BME280;27838;43.858;25.974;2023-01-29T08:48:43;101670.28;;;6.50;61.69
42169;BME280;27838;43.858;25.974;2023-01-29T08:51:10;101682.56;;;6.55;61.42
42169;BME280;27838;43.858;25.974;2023-01-29T08:53:36;101689.69;;;6.63;61.05
42169;BME280;27838;43.858;25.974;2023-01-29T08:56:03;101688.19;;;6.69;61.67
42169;BME280;27838;43.858;25.974;2023-01-29T08:58:29;101691.75;;;6.73;61.30
42169;BME280;27838;43.858;25.974;2023-01-29T09:00:56;101697.66;;;6.69;61.42
42169;BME280;27838;43.858;25.974;2023-01-29T09:03:30;101691.44;;;6.64;61.59
42169;BME280;27838;43.858;25.974;2023-01-29T09:05:56;101688.78;;;6.62;61.72
42169;BME280;27838;43.858;25.974;2023-01-29T09:08:23;101690.50;;;6.61;61.57
42169;BME280;27838;43.858;25.974;2023-01-29T09:10:49;101697.53;;;6.66;61.97
42169;BME280;27838;43.858;25.974;2023-01-29T09:13:16;101692.41;;;6.67;61.09
42169;BME280;27838;43.858;25.974;2023-01-29T09:15:43;101686.41;;;6.68;61.30
42169;BME280;27838;43.858;25.974;2023-01-29T09:18:09;101689.06;;;6.70;61.36
42169;BME280;27838;43.858;25.974;2023-01-29T09:20:36;101686.41;;;6.68;60.97
42169;BME280;27838;43.858;25.974;2023-01-29T09:23:07;101684.78;;;6.72;61.28
42169;BME280;27838;43.858;25.974;2023-01-29T09:25:35;101681.22;;;6.68;61.57
42169;BME280;27838;43.858;25.974;2023-01-29T09:28:02;101675.03;;;6.63;61.42
42169;BME280;27838;43.858;25.974;2023-01-29T09:30:30;101669.03;;;6.66;61.10
42169;BME280;27838;43.858;25.974;2023-01-29T09:32:59;101670.81;;;6.67;62.58
42169;BME280;27838;43.858;25.974;2023-01-29T09:35:25;101670.06;;;6.71;61.93
42169;BME280;27838;43.858;25.974;2023-01-29T09:37:52;101666.44;;;6.66;61.39
42169;BME280;27838;43.858;25.974;2023-01-29T09:40:59;101657.03;;;6.68;62.51
42169;BME280;27838;43.858;25.974;2023-01-29T09:43:52;101652.69;;;6.67;61.89
42169;BME280;27838;43.858;25.974;2023-01-29T09:49:20;101657.16;;;6.72;62.73
42169;BME280;27838;43.858;25.974;2023-01-29T09:51:48;101654.63;;;6.74;62.36
42169;BME280;27838;43.858;25.974;2023-01-29T09:54:32;101645.00;;;6.70;61.99
42169;BME280;27838;43.858;25.974;2023-01-29T09:57:02;101654.50;;;6.69;63.00
42169;BME280;27838;43.858;25.974;2023-01-29T09:59:30;101652.84;;;6.71;62.22
42169;BME280;27838;43.858;25.974;2023-01-29T10:04:50;101644.00;;;6.65;63.24
42169;BME280;27838;43.858;25.974;2023-01-29T10:10:39;101631.94;;;6.67;64.35
42169;BME280;27838;43.858;25.974;2023-01-29T10:13:25;101634.53;;;6.67;63.37
42169;BME280;27838;43.858;25.974;2023-01-29T10:25:05;101622.81;;;6.79;62.94
42169;BME280;27838;43.858;25.974;2023-01-29T10:27:35;101618.72;;;6.86;63.40
42169;BME280;27838;43.858;25.974;2023-01-29T10:30:07;101627.41;;;6.88;63.78
42169;BME280;27838;43.858;25.974;2023-01-29T10:32:36;101621.97;;;6.79;63.21
42169;BME280;27838;43.858;25.974;2023-01-29T10:35:11;101620.13;;;6.75;62.36
42169;BME280;27838;43.858;25.974;2023-01-29T10:37:41;101625.19;;;6.72;63.08
42169;BME280;27838;43.858;25.974;2023-01-29T10:43:13;101629.34;;;6.67;63.11
42169;BME280;27838;43.858;25.974;2023-01-29T10:45:46;101626.88;;;6.70;63.50
42169;BME280;27838;43.858;25.974;2023-01-29T10:51:25;101611.31;;;6.70;63.65
42169;BME280;27838;43.858;25.974;2023-01-29T10:57:04;101607.13;;;6.73;63.79
42169;BME280;27838;43.858;25.974;2023-01-29T11:02:42;101609.06;;;6.80;63.76
42169;BME280;27838;43.858;25.974;2023-01-29T11:05:18;101596.97;;;6.81;61.87
42169;BME280;27838;43.858;25.974;2023-01-29T11:07:47;101605.91;;;6.91;61.89
42169;BME280;27838;43.858;25.974;2023-01-29T11:10:17;101604.38;;;6.97;62.52
42169;BME280;27838;43.858;25.974;2023-01-29T11:12:47;101591.31;;;6.94;62.64
42169;BME280;27838;43.858;25.974;2023-01-29T11:15:18;101600.88;;;6.97;62.32
42169;BME280;27838;43.858;25.974;2023-01-29T11:20:31;101602.16;;;7.11;62.19
42169;BME280;27838;43.858;25.974;2023-01-29T11:22:58;101596.09;;;7.11;61.71
42169;BME280;27838;43.858;25.974;2023-01-29T11:25:25;101594.34;;;7.10;62.18
42169;BME280;27838;43.858;25.974;2023-01-29T11:27:57;101594.31;;;7.08;62.35
42169;BME280;27838;43.858;25.974;2023-01-29T11:30:34;101587.22;;;7.03;62.32
42169;BME280;27838;43.858;25.974;2023-01-29T11:35:33;101593.44;;;7.08;62.46
42169;BME280;27838;43.858;25.974;2023-01-29T11:38:27;101595.69;;;6.95;61.78
42169;BME280;27838;43.858;25.974;2023-01-29T11:41:14;101585.94;;;6.88;62.15
42169;BME280;27838;43.858;25.974;2023-01-29T11:43:42;101591.78;;;6.81;62.51
42169;BME280;27838;43.858;25.974;2023-01-29T11:46:13;101586.38;;;6.73;62.87
42169;BME280;27838;43.858;25.974;2023-01-29T11:48:44;101587.31;;;6.75;62.60
42169;BME280;27838;43.858;25.974;2023-01-29T11:51:22;101589.94;;;6.77;62.62
42169;BME280;27838;43.858;25.974;2023-01-29T11:53:56;101589.13;;;6.78;62.92
42169;BME280;27838;43.858;25.974;2023-01-29T11:56:41;101576.72;;;6.68;62.79
42169;BME280;27838;43.858;25.974;2023-01-29T12:02:03;101575.75;;;6.64;63.52
42169;BME280;27838;43.858;25.974;2023-01-29T12:04:31;101562.00;;;6.67;64.23
42169;BME280;27838;43.858;25.974;2023-01-29T12:06:58;101568.28;;;6.75;63.78
42169;BME280;27838;43.858;25.974;2023-01-29T12:09:26;101557.09;;;6.76;63.42
42169;BME280;27838;43.858;25.974;2023-01-29T12:11:54;101557.19;;;6.79;63.54
42169;BME280;27838;43.858;25.974;2023-01-29T12:14:30;101552.28;;;6.90;63.27
42169;BME280;27838;43.858;25.974;2023-01-29T12:19:39;101551.63;;;6.95;63.20
42169;BME280;27838;43.858;25.974;2023-01-29T12:27:23;101568.31;;;7.07;62.35
42169;BME280;27838;43.858;25.974;2023-01-29T12:35:41;101548.41;;;7.06;61.84
42169;BME280;27838;43.858;25.974;2023-01-29T12:38:16;101567.66;;;7.14;61.87
42169;BME280;27838;43.858;25.974;2023-01-29T12:40:46;101569.34;;;7.12;61.91
42169;BME280;27838;43.858;25.974;2023-01-29T12:43:20;101568.28;;;7.05;62.53
42169;BME280;27838;43.858;25.974;2023-01-29T12:45:51;101565.69;;;7.05;62.37
42169;BME280;27838;43.858;25.974;2023-01-29T12:48:30;101569.25;;;7.09;62.42
42169;BME280;27838;43.858;25.974;2023-01-29T12:51:07;101569.25;;;7.09;62.39
42169;BME280;27838;43.858;25.974;2023-01-29T12:53:44;101574.44;;;7.09;62.48
42169;BME280;27838;43.858;25.974;2023-01-29T12:56:29;101580.28;;;7.02;62.37
42169;BME280;27838;43.858;25.974;2023-01-29T12:58:59;101576.72;;;6.98;62.42
42169;BME280;27838;43.858;25.974;2023-01-29T13:01:41;101577.53;;;6.97;62.38
42169;BME280;27838;43.858;25.974;2023-01-29T13:04:12;101579.38;;;6.99;62.29
42169;BME280;27838;43.858;25.974;2023-01-29T13:06:44;101577.69;;;7.02;62.49
42169;BME280;27838;43.858;25.974;2023-01-29T13:09:17;101577.53;;;6.95;61.92
42169;BME280;27838;43.858;25.974;2023-01-29T13:11:58;101579.13;;;6.90;62.45
42169;BME280;27838;43.858;25.974;2023-01-29T13:17:35;101590.50;;;6.97;62.74
42169;BME280;27838;43.858;25.974;2023-01-29T13:20:17;101594.06;;;7.00;61.97
42169;BME280;27838;43.858;25.974;2023-01-29T13:22:47;101591.56;;;7.04;61.93
42169;BME280;27838;43.858;25.974;2023-01-29T13:25:16;101592.56;;;7.09;60.99
42169;BME280;27838;43.858;25.974;2023-01-29T13:27:44;101582.88;;;7.02;61.05
42169;BME280;27838;43.858;25.974;2023-01-29T13:30:26;101589.47;;;6.90;61.65
42169;BME280;27838;43.858;25.974;2023-01-29T13:32:55;101577.25;;;6.86;61.61
42169;BME280;27838;43.858;25.974;2023-01-29T13:35:37;101581.69;;;6.90;61.86
42169;BME280;27838;43.858;25.974;2023-01-29T13:38:05;101584.28;;;6.90;62.34
42169;BME280;27838;43.858;25.974;2023-01-29T13:40:48;101590.44;;;6.94;61.71
42169;BME280;27838;43.858;25.974;2023-01-29T13:43:19;101589.53;;;6.93;62.42
42169;BME280;27838;43.858;25.974;2023-01-29T13:45:48;101594.81;;;6.96;61.44
42169;BME280;27838;43.858;25.974;2023-01-29T13:48:22;101587.97;;;6.98;61.86
42169;BME280;27838;43.858;25.974;2023-01-29T13:50:52;101592.28;;;6.98;62.37
42169;BME280;27838;43.858;25.974;2023-01-29T13:53:24;101590.56;;;6.98;61.96
42169;BME280;27838;43.858;25.974;2023-01-29T13:55:52;101592.41;;;7.03;61.46
42169;BME280;27838;43.858;25.974;2023-01-29T14:00:58;101590.78;;;7.06;61.60
42169;BME280;27838;43.858;25.974;2023-01-29T14:13:41;101592.53;;;7.07;61.53
42169;BME280;27838;43.858;25.974;2023-01-29T14:18:36;101590.06;;;7.12;60.95
42169;BME280;27838;43.858;25.974;2023-01-29T14:23:44;101590.22;;;7.16;60.68
42169;BME280;27838;43.858;25.974;2023-01-29T14:31:41;101587.22;;;7.03;61.14
42169;BME280;27838;43.858;25.974;2023-01-29T14:34:24;101582.00;;;7.01;60.72
42169;BME280;27838;43.858;25.974;2023-01-29T14:36:54;101585.47;;;7.02;60.65
42169;BME280;27838;43.858;25.974;2023-01-29T14:39:35;101589.81;;;7.03;60.73
42169;BME280;27838;43.858;25.974;2023-01-29T14:42:13;101589.03;;;7.05;61.29
42169;BME280;27838;43.858;25.974;2023-01-29T14:44:56;101588.16;;;7.05;61.50
42169;BME280;27838;43.858;25.974;2023-01-29T14:50:05;101590.84;;;7.08;61.73
42169;BME280;27838;43.858;25.974;2023-01-29T14:52:50;101580.28;;;7.02;62.67
42169;BME280;27838;43.858;25.974;2023-01-29T14:55:39;101568.09;;;6.97;61.87
42169;BME280;27838;43.858;25.974;2023-01-29T14:58:21;101588.06;;;7.02;62.63
42169;BME280;27838;43.858;25.974;2023-01-29T15:00:52;101582.97;;;7.05;62.49
42169;BME280;27838;43.858;25.974;2023-01-29T15:03:28;101582.81;;;7.00;62.51
42169;BME280;27838;43.858;25.974;2023-01-29T15:05:57;101573.31;;;7.00;62.60
42169;BME280;27838;43.858;25.974;2023-01-29T15:11:10;101588.63;;;6.91;62.73
42169;BME280;27838;43.858;25.974;2023-01-29T15:14:13;101581.72;;;6.92;62.73
42169;BME280;27838;43.858;25.974;2023-01-29T15:16:50;101587.97;;;6.98;62.51
42169;BME280;27838;43.858;25.974;2023-01-29T15:19:34;101589.63;;;6.96;62.47
42169;BME280;27838;43.858;25.974;2023-01-29T15:22:06;101586.13;;;6.94;63.22
42169;BME280;27838;43.858;25.974;2023-01-29T15:24:33;101583.69;;;6.99;62.84
42169;BME280;27838;43.858;25.974;2023-01-29T15:27:01;101586.28;;;7.00;62.85
42169;BME280;27838;43.858;25.974;2023-01-29T15:29:28;101585.56;;;7.05;62.44
42169;BME280;27838;43.858;25.974;2023-01-29T15:31:56;101583.75;;;7.02;62.49
42169;BME280;27838;43.858;25.974;2023-01-29T15:34:23;101594.25;;;7.07;62.78
42169;BME280;27838;43.858;25.974;2023-01-29T15:36:50;101590.84;;;7.09;62.76
42169;BME280;27838;43.858;25.974;2023-01-29T15:39:22;101590.84;;;7.08;62.50